sensor_id;sensor_type;location;lat;lon;timestamp;temperature;humidity
21944;DHT22;11136;48.778;9.126;2022-11-20T00:00:28;7.90;99.90
21944;DHT22;11136;48.778;9.126;2022-11-20T00:02:53;7.80;99.90
21944;DHT22;11136;48.778;9.126;2022-11-20T00:05:19;7.90;99.90
21944;DHT22;11136;48.778;9.126;2022-11-20T00:07:46;7.90;99.90
21944;DHT22;11136;48.778;9.126;2022-11-20T00:10:11;7.80;99.90
21944;DHT22;11136;48.778;9.126;2022-11-20T00:12:37;7.80;99.90
21944;DHT22;11136;48.778;9.126;2022-11-20T00:15:04;7.80;99.90
21944;DHT22;11136;48.778;9.126;2022-11-20T00:17:29;7.80;99.90
21944;DHT22;11136;48.778;9.126;2022-11-20T00:19:55;7.70;99.90
21944;DHT22;11136;48.778;9.126;2022-11-20T00:22:20;7.70;99.90
21944;DHT22;11136;48.778;9.126;2022-11-20T00:24:46;7.70;99.90
21944;DHT22;11136;48.778;9.126;2022-11-20T00:27:12;7.60;99.90
21944;DHT22;11136;48.778;9.126;2022-11-20T00:29:37;7.70;99.90
21944;DHT22;11136;48.778;9.126;2022-11-20T00:32:03;7.70;99.90
21944;DHT22;11136;48.778;9.126;2022-11-20T00:34:28;7.70;99.90
21944;DHT22;11136;48.778;9.126;2022-11-20T00:36:54;7.70;99.90
21944;DHT22;11136;48.778;9.126;2022-11-20T00:39:19;7.60;99.90
21944;DHT22;11136;48.778;9.126;2022-11-20T00:41:45;7.60;99.90
21944;DHT22;11136;48.778;9.126;2022-11-20T00:44:10;7.60;99.90
21944;DHT22;11136;48.778;9.126;2022-11-20T00:46:36;7.60;99.90
21944;DHT22;11136;48.778;9.126;2022-11-20T00:49:01;7.60;99.90
21944;DHT22;11136;48.778;9.126;2022-11-20T00:51:27;7.60;99.90
21944;DHT22;11136;48.778;9.126;2022-11-20T00:53:57;7.50;99.90
21944;DHT22;11136;48.778;9.126;2022-11-20T00:56:23;7.50;99.90
21944;DHT22;11136;48.778;9.126;2022-11-20T00:58:49;7.50;99.90
21944;DHT22;11136;48.778;9.126;2022-11-20T01:01:20;7.50;99.90
21944;DHT22;11136;48.778;9.126;2022-11-20T01:03:48;7.50;99.90
21944;DHT22;11136;48.778;9.126;2022-11-20T01:06:22;7.40;99.90
21944;DHT22;11136;48.778;9.126;2022-11-20T01:08:49;7.40;99.90
21944;DHT22;11136;48.778;9.126;2022-11-20T01:11:21;7.30;99.90
21944;DHT22;11136;48.778;9.126;2022-11-20T01:13:49;7.30;99.90
21944;DHT22;11136;48.778;9.126;2022-11-20T01:16:18;7.40;99.90
21944;DHT22;11136;48.778;9.126;2022-11-20T01:18:47;7.20;99.90
21944;DHT22;11136;48.778;9.126;2022-11-20T01:21:18;7.20;99.90
21944;DHT22;11136;48.778;9.126;2022-11-20T01:23:44;7.20;99.90
21944;DHT22;11136;48.778;9.126;2022-11-20T01:26:14;7.10;99.90
21944;DHT22;11136;48.778;9.126;2022-11-20T01:28:41;7.10;99.90
21944;DHT22;11136;48.778;9.126;2022-11-20T01:31:16;7.10;99.90
21944;DHT22;11136;48.778;9.126;2022-11-20T01:33:42;7.00;99.90
21944;DHT22;11136;48.778;9.126;2022-11-20T01:36:08;7.00;99.90
21944;DHT22;11136;48.778;9.126;2022-11-20T01:38:34;7.00;99.90
21944;DHT22;11136;48.778;9.126;2022-11-20T01:41:00;6.90;99.90
21944;DHT22;11136;48.778;9.126;2022-11-20T01:43:26;6.90;99.90
21944;DHT22;11136;48.778;9.126;2022-11-20T01:46:19;6.90;99.90
21944;DHT22;11136;48.778;9.126;2022-11-20T01:49:12;6.90;99.90
21944;DHT22;11136;48.778;9.126;2022-11-20T01:51:43;6.80;99.90
21944;DHT22;11136;48.778;9.126;2022-11-20T01:54:18;6.80;99.90
21944;DHT22;11136;48.778;9.126;2022-11-20T01:56:45;6.80;99.90
21944;DHT22;11136;48.778;9.126;2022-11-20T01:59:16;6.80;99.90
21944;DHT22;11136;48.778;9.126;2022-11-20T02:01:43;6.70;99.90
21944;DHT22;11136;48.778;9.126;2022-11-20T02:04:09;6.70;99.90
21944;DHT22;11136;48.778;9.126;2022-11-20T02:06:42;6.70;99.90
21944;DHT22;11136;48.778;9.126;2022-11-20T02:09:09;6.80;99.90
21944;DHT22;11136;48.778;9.126;2022-11-20T02:11:35;6.70;99.90
21944;DHT22;11136;48.778;9.126;2022-11-20T02:14:01;6.80;99.90
21944;DHT22;11136;48.778;9.126;2022-11-20T02:16:35;6.80;99.90
21944;DHT22;11136;48.778;9.126;2022-11-20T02:19:05;6.70;99.90
21944;DHT22;11136;48.778;9.126;2022-11-20T02:21:42;6.70;99.90
21944;DHT22;11136;48.778;9.126;2022-11-20T02:24:14;6.70;99.90
21944;DHT22;11136;48.778;9.126;2022-11-20T02:26:47;6.70;99.90
21944;DHT22;11136;48.778;9.126;2022-11-20T02:29:18;6.70;99.90
21944;DHT22;11136;48.778;9.126;2022-11-20T02:31:45;6.60;99.90
21944;DHT22;11136;48.778;9.126;2022-11-20T02:34:10;6.60;99.90
21944;DHT22;11136;48.778;9.126;2022-11-20T02:36:38;6.60;99.90
21944;DHT22;11136;48.778;9.126;2022-11-20T02:39:05;6.60;99.90
21944;DHT22;11136;48.778;9.126;2022-11-20T02:41:33;6.60;99.90
21944;DHT22;11136;48.778;9.126;2022-11-20T02:43:59;6.60;99.90
21944;DHT22;11136;48.778;9.126;2022-11-20T02:46:24;6.60;99.90
21944;DHT22;11136;48.778;9.126;2022-11-20T02:48:50;6.70;99.90
21944;DHT22;11136;48.778;9.126;2022-11-20T02:51:15;6.60;99.90
21944;DHT22;11136;48.778;9.126;2022-11-20T02:53:41;6.60;99.90
21944;DHT22;11136;48.778;9.126;2022-11-20T02:56:07;6.70;99.90
21944;DHT22;11136;48.778;9.126;2022-11-20T02:58:32;6.70;99.90
21944;DHT22;11136;48.778;9.126;2022-11-20T03:00:58;6.70;99.90
21944;DHT22;11136;48.778;9.126;2022-11-20T03:03:23;6.70;99.90
21944;DHT22;11136;48.778;9.126;2022-11-20T03:05:49;6.70;99.90
21944;DHT22;11136;48.778;9.126;2022-11-20T03:08:14;6.70;99.90
21944;DHT22;11136;48.778;9.126;2022-11-20T03:10:40;6.60;99.90
21944;DHT22;11136;48.778;9.126;2022-11-20T03:13:05;6.60;99.90
21944;DHT22;11136;48.778;9.126;2022-11-20T03:15:31;6.60;99.90
21944;DHT22;11136;48.778;9.126;2022-11-20T03:17:56;6.60;99.90
21944;DHT22;11136;48.778;9.126;2022-11-20T03:20:22;6.60;99.90
21944;DHT22;11136;48.778;9.126;2022-11-20T03:22:48;6.60;99.90
21944;DHT22;11136;48.778;9.126;2022-11-20T03:25:13;6.60;99.90
21944;DHT22;11136;48.778;9.126;2022-11-20T03:27:39;6.60;99.90
21944;DHT22;11136;48.778;9.126;2022-11-20T03:30:05;6.60;99.90
21944;DHT22;11136;48.778;9.126;2022-11-20T03:32:31;6.60;99.90
21944;DHT22;11136;48.778;9.126;2022-11-20T03:34:57;6.60;99.90
21944;DHT22;11136;48.778;9.126;2022-11-20T03:37:23;6.60;99.90
21944;DHT22;11136;48.778;9.126;2022-11-20T03:39:48;6.50;99.90
21944;DHT22;11136;48.778;9.126;2022-11-20T03:42:14;6.50;99.90
21944;DHT22;11136;48.778;9.126;2022-11-20T03:44:58;6.50;99.90
21944;DHT22;11136;48.778;9.126;2022-11-20T03:47:23;6.60;99.90
21944;DHT22;11136;48.778;9.126;2022-11-20T03:49:49;6.50;99.90
21944;DHT22;11136;48.778;9.126;2022-11-20T03:52:15;6.40;99.90
21944;DHT22;11136;48.778;9.126;2022-11-20T03:54:40;6.40;99.90
21944;DHT22;11136;48.778;9.126;2022-11-20T03:57:06;6.30;99.90
21944;DHT22;11136;48.778;9.126;2022-11-20T03:59:31;6.30;99.90
21944;DHT22;11136;48.778;9.126;2022-11-20T04:01:57;6.30;99.90
21944;DHT22;11136;48.778;9.126;2022-11-20T04:04:22;6.30;99.90
21944;DHT22;11136;48.778;9.126;2022-11-20T04:06:48;6.30;99.90
21944;DHT22;11136;48.778;9.126;2022-11-20T04:09:13;6.20;99.90
21944;DHT22;11136;48.778;9.126;2022-11-20T04:11:40;6.20;99.90
21944;DHT22;11136;48.778;9.126;2022-11-20T04:14:13;6.20;99.90
21944;DHT22;11136;48.778;9.126;2022-11-20T04:16:38;6.20;99.90
21944;DHT22;11136;48.778;9.126;2022-11-20T04:19:13;6.20;99.90
21944;DHT22;11136;48.778;9.126;2022-11-20T04:21:39;6.20;99.90
21944;DHT22;11136;48.778;9.126;2022-11-20T04:24:05;6.20;99.90
21944;DHT22;11136;48.778;9.126;2022-11-20T04:26:31;6.20;99.90
21944;DHT22;11136;48.778;9.126;2022-11-20T04:28:57;6.20;99.90
21944;DHT22;11136;48.778;9.126;2022-11-20T04:31:26;6.10;99.90
21944;DHT22;11136;48.778;9.126;2022-11-20T04:33:52;6.10;99.90
21944;DHT22;11136;48.778;9.126;2022-11-20T04:36:22;6.10;99.90
21944;DHT22;11136;48.778;9.126;2022-11-20T04:38:53;6.10;99.90
21944;DHT22;11136;48.778;9.126;2022-11-20T04:41:20;6.10;99.90
21944;DHT22;11136;48.778;9.126;2022-11-20T04:43:47;6.10;99.90
21944;DHT22;11136;48.778;9.126;2022-11-20T04:46:14;6.10;99.90
21944;DHT22;11136;48.778;9.126;2022-11-20T04:48:39;6.10;99.90
21944;DHT22;11136;48.778;9.126;2022-11-20T04:51:05;6.10;99.90
21944;DHT22;11136;48.778;9.126;2022-11-20T04:53:31;6.20;99.90
21944;DHT22;11136;48.778;9.126;2022-11-20T04:56:01;6.10;99.90
21944;DHT22;11136;48.778;9.126;2022-11-20T04:58:27;6.20;99.90
21944;DHT22;11136;48.778;9.126;2022-11-20T05:00:53;6.20;99.90
21944;DHT22;11136;48.778;9.126;2022-11-20T05:03:18;6.20;99.90
21944;DHT22;11136;48.778;9.126;2022-11-20T05:05:44;6.20;99.90
21944;DHT22;11136;48.778;9.126;2022-11-20T05:08:09;6.20;99.90
21944;DHT22;11136;48.778;9.126;2022-11-20T05:10:35;6.20;99.90
21944;DHT22;11136;48.778;9.126;2022-11-20T05:13:00;6.20;99.90
21944;DHT22;11136;48.778;9.126;2022-11-20T05:15:26;6.20;99.90
21944;DHT22;11136;48.778;9.126;2022-11-20T05:17:52;6.20;99.90
21944;DHT22;11136;48.778;9.126;2022-11-20T05:20:18;6.20;99.90
21944;DHT22;11136;48.778;9.126;2022-11-20T05:22:45;6.20;99.90
21944;DHT22;11136;48.778;9.126;2022-11-20T05:25:11;6.30;99.90
21944;DHT22;11136;48.778;9.126;2022-11-20T05:27:37;6.40;99.90
21944;DHT22;11136;48.778;9.126;2022-11-20T05:30:07;6.30;99.90
21944;DHT22;11136;48.778;9.126;2022-11-20T05:32:32;6.30;99.90
21944;DHT22;11136;48.778;9.126;2022-11-20T05:34:58;6.30;99.90
21944;DHT22;11136;48.778;9.126;2022-11-20T05:37:23;6.30;99.90
21944;DHT22;11136;48.778;9.126;2022-11-20T05:39:49;6.40;99.90
21944;DHT22;11136;48.778;9.126;2022-11-20T05:42:14;6.30;99.90
21944;DHT22;11136;48.778;9.126;2022-11-20T05:44:59;6.30;99.90
21944;DHT22;11136;48.778;9.126;2022-11-20T05:47:26;6.30;99.90
21944;DHT22;11136;48.778;9.126;2022-11-20T05:49:52;6.40;99.90
21944;DHT22;11136;48.778;9.126;2022-11-20T05:52:17;6.30;99.90
21944;DHT22;11136;48.778;9.126;2022-11-20T05:54:43;6.30;99.90
21944;DHT22;11136;48.778;9.126;2022-11-20T05:57:08;6.60;99.90
21944;DHT22;11136;48.778;9.126;2022-11-20T05:59:34;6.40;99.90
21944;DHT22;11136;48.778;9.126;2022-11-20T06:01:59;6.40;99.90
21944;DHT22;11136;48.778;9.126;2022-11-20T06:04:25;6.50;99.90
21944;DHT22;11136;48.778;9.126;2022-11-20T06:06:50;6.40;99.90
21944;DHT22;11136;48.778;9.126;2022-11-20T06:09:16;6.50;99.90
21944;DHT22;11136;48.778;9.126;2022-11-20T06:11:41;6.50;99.90
21944;DHT22;11136;48.778;9.126;2022-11-20T06:14:07;6.50;99.90
21944;DHT22;11136;48.778;9.126;2022-11-20T06:16:33;6.40;99.90
21944;DHT22;11136;48.778;9.126;2022-11-20T06:18:58;6.50;99.90
21944;DHT22;11136;48.778;9.126;2022-11-20T06:21:24;6.50;99.90
21944;DHT22;11136;48.778;9.126;2022-11-20T06:23:50;6.50;99.90
21944;DHT22;11136;48.778;9.126;2022-11-20T06:26:18;6.50;99.90
21944;DHT22;11136;48.778;9.126;2022-11-20T06:28:44;6.50;99.90
21944;DHT22;11136;48.778;9.126;2022-11-20T06:31:12;6.50;99.90
21944;DHT22;11136;48.778;9.126;2022-11-20T06:33:38;6.50;99.90
21944;DHT22;11136;48.778;9.126;2022-11-20T06:36:04;6.50;99.90
21944;DHT22;11136;48.778;9.126;2022-11-20T06:38:30;6.50;99.90
21944;DHT22;11136;48.778;9.126;2022-11-20T06:40:56;6.50;99.90
21944;DHT22;11136;48.778;9.126;2022-11-20T06:43:22;6.50;99.90
21944;DHT22;11136;48.778;9.126;2022-11-20T06:45:55;6.40;99.90
21944;DHT22;11136;48.778;9.126;2022-11-20T06:48:21;6.20;99.90
21944;DHT22;11136;48.778;9.126;2022-11-20T06:50:47;6.40;99.90
21944;DHT22;11136;48.778;9.126;2022-11-20T06:53:12;6.40;99.90
21944;DHT22;11136;48.778;9.126;2022-11-20T06:55:42;6.40;99.90
21944;DHT22;11136;48.778;9.126;2022-11-20T06:58:09;6.40;99.90
21944;DHT22;11136;48.778;9.126;2022-11-20T07:00:34;6.40;99.90
21944;DHT22;11136;48.778;9.126;2022-11-20T07:03:06;6.40;99.90
21944;DHT22;11136;48.778;9.126;2022-11-20T07:05:33;6.40;99.90
21944;DHT22;11136;48.778;9.126;2022-11-20T07:07:59;6.40;99.90
21944;DHT22;11136;48.778;9.126;2022-11-20T07:10:25;6.40;99.90
21944;DHT22;11136;48.778;9.126;2022-11-20T07:12:52;6.40;99.90
21944;DHT22;11136;48.778;9.126;2022-11-20T07:15:19;6.40;99.90
21944;DHT22;11136;48.778;9.126;2022-11-20T07:17:45;6.40;99.90
21944;DHT22;11136;48.778;9.126;2022-11-20T07:20:11;6.40;99.90
21944;DHT22;11136;48.778;9.126;2022-11-20T07:22:37;6.40;99.90
21944;DHT22;11136;48.778;9.126;2022-11-20T07:25:03;6.40;99.90
21944;DHT22;11136;48.778;9.126;2022-11-20T07:27:29;6.40;99.90
21944;DHT22;11136;48.778;9.126;2022-11-20T07:29:55;6.40;99.90
21944;DHT22;11136;48.778;9.126;2022-11-20T07:32:20;6.40;99.90
21944;DHT22;11136;48.778;9.126;2022-11-20T07:34:46;6.40;99.90
21944;DHT22;11136;48.778;9.126;2022-11-20T07:37:12;6.40;99.90
21944;DHT22;11136;48.778;9.126;2022-11-20T07:39:38;6.40;99.90
21944;DHT22;11136;48.778;9.126;2022-11-20T07:42:03;6.40;99.90
21944;DHT22;11136;48.778;9.126;2022-11-20T07:44:29;6.50;99.90
21944;DHT22;11136;48.778;9.126;2022-11-20T07:46:54;6.40;99.90
21944;DHT22;11136;48.778;9.126;2022-11-20T07:49:20;6.40;99.90
21944;DHT22;11136;48.778;9.126;2022-11-20T07:51:45;6.40;99.90
21944;DHT22;11136;48.778;9.126;2022-11-20T07:54:11;6.50;99.90
21944;DHT22;11136;48.778;9.126;2022-11-20T07:56:36;6.50;99.90
21944;DHT22;11136;48.778;9.126;2022-11-20T07:59:03;6.60;99.90
21944;DHT22;11136;48.778;9.126;2022-11-20T08:01:28;6.60;99.90
21944;DHT22;11136;48.778;9.126;2022-11-20T08:03:54;6.60;99.90
21944;DHT22;11136;48.778;9.126;2022-11-20T08:06:20;6.70;99.90
21944;DHT22;11136;48.778;9.126;2022-11-20T08:08:45;6.70;99.90
21944;DHT22;11136;48.778;9.126;2022-11-20T08:11:11;6.70;99.90
21944;DHT22;11136;48.778;9.126;2022-11-20T08:13:55;7.00;99.90
21944;DHT22;11136;48.778;9.126;2022-11-20T08:16:49;6.70;99.90
21944;DHT22;11136;48.778;9.126;2022-11-20T08:19:18;6.80;99.90
21944;DHT22;11136;48.778;9.126;2022-11-20T08:21:44;6.80;99.90
21944;DHT22;11136;48.778;9.126;2022-11-20T08:24:10;6.80;99.90
21944;DHT22;11136;48.778;9.126;2022-11-20T08:26:37;6.80;99.90
21944;DHT22;11136;48.778;9.126;2022-11-20T08:29:03;6.80;99.90
21944;DHT22;11136;48.778;9.126;2022-11-20T08:31:30;6.90;99.90
21944;DHT22;11136;48.778;9.126;2022-11-20T08:33:56;6.90;99.90
21944;DHT22;11136;48.778;9.126;2022-11-20T08:36:22;7.10;99.90
21944;DHT22;11136;48.778;9.126;2022-11-20T08:38:53;6.90;99.90
21944;DHT22;11136;48.778;9.126;2022-11-20T08:41:19;6.90;99.90
21944;DHT22;11136;48.778;9.126;2022-11-20T08:44:04;7.00;99.90
21944;DHT22;11136;48.778;9.126;2022-11-20T08:46:35;7.10;99.90
21944;DHT22;11136;48.778;9.126;2022-11-20T08:49:05;7.10;99.90
21944;DHT22;11136;48.778;9.126;2022-11-20T08:51:31;7.10;99.90
21944;DHT22;11136;48.778;9.126;2022-11-20T08:53:57;7.20;99.90
21944;DHT22;11136;48.778;9.126;2022-11-20T08:56:22;7.30;99.90
21944;DHT22;11136;48.778;9.126;2022-11-20T08:58:50;7.50;99.90
21944;DHT22;11136;48.778;9.126;2022-11-20T09:01:16;7.60;99.90
21944;DHT22;11136;48.778;9.126;2022-11-20T09:03:42;7.60;99.90
21944;DHT22;11136;48.778;9.126;2022-11-20T09:06:08;7.70;99.90
21944;DHT22;11136;48.778;9.126;2022-11-20T09:08:34;7.70;99.90
21944;DHT22;11136;48.778;9.126;2022-11-20T09:11:01;7.70;99.90
21944;DHT22;11136;48.778;9.126;2022-11-20T09:13:28;7.70;99.90
21944;DHT22;11136;48.778;9.126;2022-11-20T09:15:59;7.60;99.90
21944;DHT22;11136;48.778;9.126;2022-11-20T09:18:26;7.70;99.90
21944;DHT22;11136;48.778;9.126;2022-11-20T09:20:55;7.60;99.90
21944;DHT22;11136;48.778;9.126;2022-11-20T09:23:21;7.60;99.90
21944;DHT22;11136;48.778;9.126;2022-11-20T09:25:48;7.60;99.90
21944;DHT22;11136;48.778;9.126;2022-11-20T09:28:14;7.60;99.90
21944;DHT22;11136;48.778;9.126;2022-11-20T09:30:39;7.60;99.90
21944;DHT22;11136;48.778;9.126;2022-11-20T09:33:06;7.60;99.90
21944;DHT22;11136;48.778;9.126;2022-11-20T09:35:32;7.60;99.90
21944;DHT22;11136;48.778;9.126;2022-11-20T09:37:57;7.70;99.90
21944;DHT22;11136;48.778;9.126;2022-11-20T09:40:26;7.60;99.90
21944;DHT22;11136;48.778;9.126;2022-11-20T09:51:59;7.60;99.90
21944;DHT22;11136;48.778;9.126;2022-11-20T09:54:31;7.60;99.90
21944;DHT22;11136;48.778;9.126;2022-11-20T09:57:03;7.50;99.90
21944;DHT22;11136;48.778;9.126;2022-11-20T09:59:38;7.60;99.90
21944;DHT22;11136;48.778;9.126;2022-11-20T10:05:02;7.60;99.90
21944;DHT22;11136;48.778;9.126;2022-11-20T10:10:38;7.50;99.90
21944;DHT22;11136;48.778;9.126;2022-11-20T10:19:18;7.60;99.90
21944;DHT22;11136;48.778;9.126;2022-11-20T10:30:16;7.50;99.90
21944;DHT22;11136;48.778;9.126;2022-11-20T10:33:06;7.50;99.90
21944;DHT22;11136;48.778;9.126;2022-11-20T10:35:39;7.40;99.90
21944;DHT22;11136;48.778;9.126;2022-11-20T10:38:18;7.40;99.90
21944;DHT22;11136;48.778;9.126;2022-11-20T10:40:51;7.40;99.90
21944;DHT22;11136;48.778;9.126;2022-11-20T10:43:36;7.40;99.90
21944;DHT22;11136;48.778;9.126;2022-11-20T10:46:06;7.40;99.90
21944;DHT22;11136;48.778;9.126;2022-11-20T10:48:36;7.40;99.90
21944;DHT22;11136;48.778;9.126;2022-11-20T10:56:48;7.40;99.90
21944;DHT22;11136;48.778;9.126;2022-11-20T11:01:56;7.40;99.90
21944;DHT22;11136;48.778;9.126;2022-11-20T11:06:51;7.50;99.90
21944;DHT22;11136;48.778;9.126;2022-11-20T11:09:28;7.50;99.90
21944;DHT22;11136;48.778;9.126;2022-11-20T11:11:57;7.40;99.90
21944;DHT22;11136;48.778;9.126;2022-11-20T11:14:22;7.50;99.90
21944;DHT22;11136;48.778;9.126;2022-11-20T11:16:53;7.50;99.90
21944;DHT22;11136;48.778;9.126;2022-11-20T11:19:19;7.50;99.90
21944;DHT22;11136;48.778;9.126;2022-11-20T11:21:52;7.50;99.90
21944;DHT22;11136;48.778;9.126;2022-11-20T11:24:27;7.60;99.90
21944;DHT22;11136;48.778;9.126;2022-11-20T11:26:58;7.70;99.90
21944;DHT22;11136;48.778;9.126;2022-11-20T11:29:24;7.80;99.90
21944;DHT22;11136;48.778;9.126;2022-11-20T11:32:06;7.80;99.90
21944;DHT22;11136;48.778;9.126;2022-11-20T11:34:33;7.90;99.90
21944;DHT22;11136;48.778;9.126;2022-11-20T11:37:00;8.00;99.90
21944;DHT22;11136;48.778;9.126;2022-11-20T11:39:28;8.10;99.90
21944;DHT22;11136;48.778;9.126;2022-11-20T11:41:54;8.20;99.90
21944;DHT22;11136;48.778;9.126;2022-11-20T11:44:33;8.30;99.90
21944;DHT22;11136;48.778;9.126;2022-11-20T11:47:33;8.40;99.90
21944;DHT22;11136;48.778;9.126;2022-11-20T11:58:16;8.80;99.90
21944;DHT22;11136;48.778;9.126;2022-11-20T12:00:57;8.90;99.90
21944;DHT22;11136;48.778;9.126;2022-11-20T12:03:38;8.90;99.90
21944;DHT22;11136;48.778;9.126;2022-11-20T12:06:24;8.90;99.90
21944;DHT22;11136;48.778;9.126;2022-11-20T12:09:03;8.90;99.90
21944;DHT22;11136;48.778;9.126;2022-11-20T12:14:19;8.90;99.90
21944;DHT22;11136;48.778;9.126;2022-11-20T12:16:49;8.90;99.90
21944;DHT22;11136;48.778;9.126;2022-11-20T12:19:15;8.90;99.90
21944;DHT22;11136;48.778;9.126;2022-11-20T12:25:21;9.10;99.90
21944;DHT22;11136;48.778;9.126;2022-11-20T12:30:21;9.30;99.90
21944;DHT22;11136;48.778;9.126;2022-11-20T12:35:42;9.50;99.90
21944;DHT22;11136;48.778;9.126;2022-11-20T12:44:36;9.70;99.90
21944;DHT22;11136;48.778;9.126;2022-11-20T12:52:57;9.70;99.90
21944;DHT22;11136;48.778;9.126;2022-11-20T12:55:41;9.80;99.90
21944;DHT22;11136;48.778;9.126;2022-11-20T13:00:46;9.80;99.90
21944;DHT22;11136;48.778;9.126;2022-11-20T13:06:18;9.90;99.90
21944;DHT22;11136;48.778;9.126;2022-11-20T13:09:04;10.00;99.90
21944;DHT22;11136;48.778;9.126;2022-11-20T13:12:09;10.10;99.90
21944;DHT22;11136;48.778;9.126;2022-11-20T13:17:51;10.00;99.90
21944;DHT22;11136;48.778;9.126;2022-11-20T13:20:19;10.00;99.90
21944;DHT22;11136;48.778;9.126;2022-11-20T13:22:53;9.80;99.90
21944;DHT22;11136;48.778;9.126;2022-11-20T13:27:53;9.70;99.90
21944;DHT22;11136;48.778;9.126;2022-11-20T13:30:22;9.60;99.90
21944;DHT22;11136;48.778;9.126;2022-11-20T13:35:31;9.50;99.90
21944;DHT22;11136;48.778;9.126;2022-11-20T13:40:33;9.40;99.90
21944;DHT22;11136;48.778;9.126;2022-11-20T13:46:02;9.30;99.90
21944;DHT22;11136;48.778;9.126;2022-11-20T13:48:41;9.20;99.90
21944;DHT22;11136;48.778;9.126;2022-11-20T13:54:11;9.10;99.90
21944;DHT22;11136;48.778;9.126;2022-11-20T13:57:13;9.00;99.90
21944;DHT22;11136;48.778;9.126;2022-11-20T14:00:16;8.90;99.90
21944;DHT22;11136;48.778;9.126;2022-11-20T14:02:44;8.80;99.90
21944;DHT22;11136;48.778;9.126;2022-11-20T14:05:23;8.70;99.90
21944;DHT22;11136;48.778;9.126;2022-11-20T14:07:50;8.60;99.90
21944;DHT22;11136;48.778;9.126;2022-11-20T14:10:24;8.50;99.90
21944;DHT22;11136;48.778;9.126;2022-11-20T14:12:50;8.40;99.90
21944;DHT22;11136;48.778;9.126;2022-11-20T14:15:26;8.40;99.90
21944;DHT22;11136;48.778;9.126;2022-11-20T14:17:52;8.40;99.90
21944;DHT22;11136;48.778;9.126;2022-11-20T14:20:18;8.40;99.90
21944;DHT22;11136;48.778;9.126;2022-11-20T14:22:52;8.40;99.90
21944;DHT22;11136;48.778;9.126;2022-11-20T14:25:19;8.40;99.90
21944;DHT22;11136;48.778;9.126;2022-11-20T14:27:53;8.40;99.90
21944;DHT22;11136;48.778;9.126;2022-11-20T14:30:26;8.40;99.90
21944;DHT22;11136;48.778;9.126;2022-11-20T14:32:55;8.40;99.90
21944;DHT22;11136;48.778;9.126;2022-11-20T14:35:28;8.40;99.90
21944;DHT22;11136;48.778;9.126;2022-11-20T14:37:55;8.50;99.90
21944;DHT22;11136;48.778;9.126;2022-11-20T14:40:35;8.50;99.90
21944;DHT22;11136;48.778;9.126;2022-11-20T14:43:02;8.50;99.90
21944;DHT22;11136;48.778;9.126;2022-11-20T14:45:28;8.50;99.90
21944;DHT22;11136;48.778;9.126;2022-11-20T14:47:56;8.60;99.90
21944;DHT22;11136;48.778;9.126;2022-11-20T14:50:27;8.60;99.90
21944;DHT22;11136;48.778;9.126;2022-11-20T14:58:02;8.60;99.90
21944;DHT22;11136;48.778;9.126;2022-11-20T15:00:30;8.60;99.90
21944;DHT22;11136;48.778;9.126;2022-11-20T15:02:56;8.60;99.90
21944;DHT22;11136;48.778;9.126;2022-11-20T15:05:25;8.60;99.90
21944;DHT22;11136;48.778;9.126;2022-11-20T15:08:07;8.60;99.90
21944;DHT22;11136;48.778;9.126;2022-11-20T15:10:34;8.60;99.90
21944;DHT22;11136;48.778;9.126;2022-11-20T15:13:03;8.60;99.90
21944;DHT22;11136;48.778;9.126;2022-11-20T15:15:33;8.50;99.90
21944;DHT22;11136;48.778;9.126;2022-11-20T15:18:00;8.50;99.90
21944;DHT22;11136;48.778;9.126;2022-11-20T15:20:29;8.50;99.90
21944;DHT22;11136;48.778;9.126;2022-11-20T15:22:55;8.50;99.90
21944;DHT22;11136;48.778;9.126;2022-11-20T15:25:21;8.40;99.90
21944;DHT22;11136;48.778;9.126;2022-11-20T15:27:52;8.40;99.90
21944;DHT22;11136;48.778;9.126;2022-11-20T15:30:20;8.50;99.90
21944;DHT22;11136;48.778;9.126;2022-11-20T15:32:46;8.40;99.90
21944;DHT22;11136;48.778;9.126;2022-11-20T15:35:13;8.40;99.90
21944;DHT22;11136;48.778;9.126;2022-11-20T15:37:40;8.40;99.90
21944;DHT22;11136;48.778;9.126;2022-11-20T15:40:06;8.30;99.90
21944;DHT22;11136;48.778;9.126;2022-11-20T15:42:33;8.30;99.90
21944;DHT22;11136;48.778;9.126;2022-11-20T15:44:59;8.30;99.90
21944;DHT22;11136;48.778;9.126;2022-11-20T15:47:28;8.30;99.90
21944;DHT22;11136;48.778;9.126;2022-11-20T15:49:55;8.30;99.90
21944;DHT22;11136;48.778;9.126;2022-11-20T15:52:21;8.20;99.90
21944;DHT22;11136;48.778;9.126;2022-11-20T15:54:47;8.20;99.90
21944;DHT22;11136;48.778;9.126;2022-11-20T15:57:12;8.20;99.90
21944;DHT22;11136;48.778;9.126;2022-11-20T15:59:38;8.20;99.90
21944;DHT22;11136;48.778;9.126;2022-11-20T16:02:13;8.10;99.90
21944;DHT22;11136;48.778;9.126;2022-11-20T16:04:39;8.10;99.90
21944;DHT22;11136;48.778;9.126;2022-11-20T16:07:05;8.10;99.90
21944;DHT22;11136;48.778;9.126;2022-11-20T16:09:30;8.10;99.90
21944;DHT22;11136;48.778;9.126;2022-11-20T16:11:56;8.10;99.90
21944;DHT22;11136;48.778;9.126;2022-11-20T16:14:25;8.10;99.90
21944;DHT22;11136;48.778;9.126;2022-11-20T16:17:09;8.10;99.90
21944;DHT22;11136;48.778;9.126;2022-11-20T16:19:34;8.10;99.90
21944;DHT22;11136;48.778;9.126;2022-11-20T16:22:00;8.00;99.90
21944;DHT22;11136;48.778;9.126;2022-11-20T16:24:28;8.10;99.90
21944;DHT22;11136;48.778;9.126;2022-11-20T16:26:54;8.00;99.90
21944;DHT22;11136;48.778;9.126;2022-11-20T16:29:20;8.00;99.90
21944;DHT22;11136;48.778;9.126;2022-11-20T16:31:46;8.00;99.90
21944;DHT22;11136;48.778;9.126;2022-11-20T16:34:11;8.00;99.90
21944;DHT22;11136;48.778;9.126;2022-11-20T16:36:39;7.80;99.90
21944;DHT22;11136;48.778;9.126;2022-11-20T16:39:06;8.00;99.90
21944;DHT22;11136;48.778;9.126;2022-11-20T16:41:33;8.10;99.90
21944;DHT22;11136;48.778;9.126;2022-11-20T16:44:00;8.00;99.90
21944;DHT22;11136;48.778;9.126;2022-11-20T16:46:29;8.00;99.90
21944;DHT22;11136;48.778;9.126;2022-11-20T16:48:55;8.00;99.90
21944;DHT22;11136;48.778;9.126;2022-11-20T16:51:22;8.00;99.90
21944;DHT22;11136;48.778;9.126;2022-11-20T16:53:48;8.00;99.90
21944;DHT22;11136;48.778;9.126;2022-11-20T16:56:17;7.80;99.90
21944;DHT22;11136;48.778;9.126;2022-11-20T16:58:47;8.00;99.90
21944;DHT22;11136;48.778;9.126;2022-11-20T17:01:18;8.00;99.90
21944;DHT22;11136;48.778;9.126;2022-11-20T17:03:46;8.00;99.90
21944;DHT22;11136;48.778;9.126;2022-11-20T17:06:19;8.00;99.90
21944;DHT22;11136;48.778;9.126;2022-11-20T17:08:46;8.00;99.90
21944;DHT22;11136;48.778;9.126;2022-11-20T17:11:15;7.80;99.90
21944;DHT22;11136;48.778;9.126;2022-11-20T17:13:41;8.00;99.90
21944;DHT22;11136;48.778;9.126;2022-11-20T17:16:12;7.80;99.90
21944;DHT22;11136;48.778;9.126;2022-11-20T17:18:38;8.00;99.90
21944;DHT22;11136;48.778;9.126;2022-11-20T17:21:04;8.00;99.90
21944;DHT22;11136;48.778;9.126;2022-11-20T17:23:31;8.00;99.90
21944;DHT22;11136;48.778;9.126;2022-11-20T17:26:05;8.00;99.90
21944;DHT22;11136;48.778;9.126;2022-11-20T17:28:32;8.00;99.90
21944;DHT22;11136;48.778;9.126;2022-11-20T17:31:09;8.00;99.90
21944;DHT22;11136;48.778;9.126;2022-11-20T17:33:36;7.90;99.90